createdAt,value
2023-01-08T00:00:16.296Z,11.26
2023-01-08T00:01:16.297Z,11.27
2023-01-08T00:02:16.091Z,11.23
2023-01-08T00:03:16.896Z,11.26
2023-01-08T00:04:16.301Z,11.29
2023-01-08T00:05:16.100Z,11.32
2023-01-08T00:06:16.659Z,11.29
2023-01-08T00:07:16.412Z,11.29
2023-01-08T00:08:16.409Z,11.35
2023-01-08T00:09:16.417Z,11.3
2023-01-08T00:10:16.552Z,11.29
2023-01-08T00:11:16.475Z,11.27
2023-01-08T00:12:15.923Z,11.29
2023-01-08T00:13:15.952Z,11.3
2023-01-08T00:14:16.477Z,11.33
2023-01-08T00:15:16.494Z,11.29
2023-01-08T00:16:16.608Z,11.27
2023-01-08T00:17:16.533Z,11.29
2023-01-08T00:18:16.298Z,11.32
2023-01-08T00:19:16.612Z,11.32
2023-01-08T00:20:16.341Z,11.33
2023-01-08T00:21:16.383Z,11.29
2023-01-08T00:22:16.879Z,11.33
2023-01-08T00:23:16.638Z,11.29
2023-01-08T00:24:17.040Z,11.36
2023-01-08T00:25:16.425Z,11.32
2023-01-08T00:26:16.466Z,11.3
2023-01-08T00:27:16.493Z,11.3
2023-01-08T00:28:16.734Z,11.25
2023-01-08T00:29:16.472Z,11.32
2023-01-08T00:30:16.766Z,11.27
2023-01-08T00:31:16.809Z,11.3
2023-01-08T00:32:16.525Z,11.27
2023-01-08T00:33:16.836Z,11.3
2023-01-08T00:34:16.559Z,11.22
2023-01-08T00:35:16.844Z,11.27
2023-01-08T00:36:16.606Z,11.23
2023-01-08T00:37:16.872Z,11.33
2023-01-08T00:38:17.130Z,11.25
2023-01-08T00:39:16.909Z,11.27
2023-01-08T00:40:16.919Z,11.27
2023-01-08T00:41:16.963Z,11.26
2023-01-08T00:42:16.977Z,11.3
2023-01-08T00:43:16.976Z,11.35
2023-01-08T00:44:16.728Z,11.32
2023-01-08T00:45:17.004Z,11.29
2023-01-08T00:46:16.998Z,11.23
2023-01-08T00:47:16.759Z,11.33
2023-01-08T00:48:16.791Z,11.27
2023-01-08T00:49:17.079Z,11.35
2023-01-08T00:50:16.848Z,11.3
2023-01-08T00:51:17.107Z,11.27
2023-01-08T00:52:17.106Z,11.3
2023-01-08T00:53:17.157Z,11.29
2023-01-08T00:54:17.397Z,11.3
2023-01-08T00:55:17.165Z,11.25
2023-01-08T00:56:16.721Z,11.33
2023-01-08T00:57:17.196Z,11.25
2023-01-08T00:58:17.339Z,11.33
2023-01-08T00:59:17.218Z,11.26
2023-01-08T01:00:17.259Z,11.29
2023-01-08T01:01:17.637Z,11.29
2023-01-08T01:02:17.514Z,11.32
2023-01-08T01:03:17.286Z,11.3
2023-01-08T01:04:17.298Z,11.33
2023-01-08T01:05:17.113Z,11.33
2023-01-08T01:06:17.385Z,11.3
2023-01-08T01:07:17.355Z,11.26
2023-01-08T01:08:17.127Z,11.35
2023-01-08T01:09:17.442Z,11.29
2023-01-08T01:10:17.299Z,11.33
2023-01-08T01:11:17.424Z,11.35
2023-01-08T01:12:17.465Z,11.3
2023-01-08T01:13:17.203Z,11.29
2023-01-08T01:14:17.346Z,11.3
2023-01-08T01:15:17.224Z,11.35
2023-01-08T01:16:17.353Z,11.25
2023-01-08T01:17:17.533Z,11.25
2023-01-08T01:18:17.549Z,11.3
2023-01-08T01:19:17.853Z,11.26
2023-01-08T01:20:17.764Z,11.29
2023-01-08T01:21:17.540Z,11.32
2023-01-08T01:22:17.836Z,11.29
2023-01-08T01:23:17.551Z,11.27
2023-01-08T01:24:18.220Z,11.3
2023-01-08T01:25:17.846Z,11.26
2023-01-08T01:26:18.166Z,11.25
2023-01-08T01:27:17.891Z,11.27
2023-01-08T01:28:17.616Z,11.25
2023-01-08T01:29:17.504Z,11.27
2023-01-08T01:30:17.610Z,11.22
2023-01-08T01:31:18.076Z,11.35
2023-01-08T01:32:17.758Z,11.27
2023-01-08T01:33:17.778Z,11.22
2023-01-08T01:34:17.530Z,11.26
2023-01-08T01:35:17.551Z,11.27
2023-01-08T01:36:17.750Z,11.27
2023-01-08T01:37:17.585Z,11.32
2023-01-08T01:38:17.837Z,11.32
2023-01-08T01:39:17.861Z,11.33
2023-01-08T01:40:17.883Z,11.33
2023-01-08T01:41:17.906Z,11.33
2023-01-08T01:42:17.897Z,11.33
2023-01-08T01:43:17.934Z,11.3
2023-01-08T01:44:17.946Z,11.26
2023-01-08T01:45:17.999Z,11.27
2023-01-08T01:46:18.376Z,11.29
2023-01-08T01:47:17.994Z,11.32
2023-01-08T01:48:17.751Z,11.33
2023-01-08T01:49:17.538Z,11.29
2023-01-08T01:50:18.133Z,11.33
2023-01-08T01:51:18.088Z,11.27
2023-01-08T01:52:18.088Z,11.35
2023-01-08T01:53:18.125Z,11.29
2023-01-08T01:54:18.106Z,11.32
2023-01-08T01:55:17.863Z,11.25
2023-01-08T01:56:18.157Z,11.27
2023-01-08T01:57:18.169Z,11.3
2023-01-08T01:58:18.455Z,11.23
2023-01-08T01:59:18.239Z,11.3
2023-01-08T02:00:18.210Z,11.29
2023-01-08T02:01:18.695Z,11.25
2023-01-08T02:02:21.308Z,11.33
2023-01-08T02:03:18.267Z,11.3
2023-01-08T02:04:18.550Z,11.3
2023-01-08T02:05:18.298Z,11.26
2023-01-08T02:06:18.297Z,11.29
2023-01-08T02:07:18.321Z,11.33
2023-01-08T02:08:18.076Z,11.27
2023-01-08T02:09:18.110Z,11.29
2023-01-08T02:10:18.375Z,11.27
2023-01-08T02:11:18.124Z,11.3
2023-01-08T02:12:18.416Z,11.36
2023-01-08T02:13:18.404Z,11.27
2023-01-08T02:14:18.789Z,11.33
2023-01-08T02:15:18.458Z,11.32
2023-01-08T02:16:18.501Z,11.29
2023-01-08T02:17:18.212Z,11.32
2023-01-08T02:18:18.622Z,11.26
2023-01-08T02:19:18.247Z,11.33
2023-01-08T02:20:18.251Z,11.32
2023-01-08T02:21:18.041Z,11.32
2023-01-08T02:22:18.561Z,11.25
2023-01-08T02:23:18.316Z,11.37
2023-01-08T02:24:18.942Z,11.33
2023-01-08T02:25:18.610Z,11.32
2023-01-08T02:26:18.359Z,11.25
2023-01-08T02:27:18.662Z,11.27
2023-01-08T02:28:18.656Z,11.29
2023-01-08T02:29:18.431Z,11.33
2023-01-08T02:30:18.942Z,11.32
2023-01-08T02:31:18.970Z,11.33
2023-01-08T02:32:18.734Z,11.35
2023-01-08T02:33:18.481Z,11.36
2023-01-08T02:34:18.902Z,11.32
2023-01-08T02:35:18.764Z,11.32
2023-01-08T02:36:18.831Z,11.33
2023-01-08T02:37:18.544Z,11.29
2023-01-08T02:38:18.841Z,11.33
2023-01-08T02:39:18.665Z,11.33
2023-01-08T02:40:18.860Z,11.35
2023-01-08T02:41:18.866Z,11.3
2023-01-08T02:42:18.899Z,11.36
2023-01-08T02:43:18.930Z,11.35
2023-01-08T02:44:18.945Z,11.35
2023-01-08T02:45:18.955Z,11.3
2023-01-08T02:46:19.421Z,11.3
2023-01-08T02:47:18.957Z,11.33
2023-01-08T02:48:19.005Z,11.36
2023-01-08T02:49:19.004Z,11.4
2023-01-08T02:50:18.940Z,11.33
2023-01-08T02:51:19.022Z,11.29
2023-01-08T02:52:19.060Z,11.27
2023-01-08T02:53:19.073Z,11.36
2023-01-08T02:54:18.807Z,11.32
2023-01-08T02:55:18.830Z,11.33
2023-01-08T02:56:19.130Z,11.32
2023-01-08T02:57:19.138Z,11.3
2023-01-08T02:58:19.213Z,11.33
2023-01-08T02:59:19.160Z,11.32
2023-01-08T03:00:19.209Z,11.37
2023-01-08T03:01:19.203Z,11.27
2023-01-08T03:02:19.678Z,11.35
2023-01-08T03:03:19.258Z,11.35
2023-01-08T03:04:19.516Z,11.3
2023-01-08T03:05:19.263Z,11.29
2023-01-08T03:06:19.404Z,11.3
2023-01-08T03:07:19.288Z,11.3
2023-01-08T03:08:19.300Z,11.33
2023-01-08T03:09:19.122Z,11.3
2023-01-08T03:10:19.097Z,11.37
2023-01-08T03:11:19.120Z,11.35
2023-01-08T03:12:19.386Z,11.33
2023-01-08T03:13:19.407Z,11.32
2023-01-08T03:14:19.441Z,11.36
2023-01-08T03:15:19.424Z,11.35
2023-01-08T03:16:19.592Z,11.33
2023-01-08T03:17:19.185Z,11.29
2023-01-08T03:18:19.635Z,11.29
2023-01-08T03:19:20.290Z,11.3
2023-01-08T03:20:19.392Z,11.25
2023-01-08T03:21:19.519Z,11.3
2023-01-08T03:22:19.655Z,11.27
2023-01-08T03:23:19.547Z,11.32
2023-01-08T03:24:19.518Z,11.33
2023-01-08T03:25:19.337Z,11.3
2023-01-08T03:26:19.590Z,11.33
2023-01-08T03:27:19.625Z,11.32
2023-01-08T03:28:19.651Z,11.3
2023-01-08T03:29:19.658Z,11.32
2023-01-08T03:30:19.682Z,11.29
2023-01-08T03:31:19.926Z,11.3
2023-01-08T03:32:19.705Z,11.36
2023-01-08T03:33:19.487Z,11.36
2023-01-08T03:34:19.957Z,11.29
2023-01-08T03:35:19.756Z,11.36
2023-01-08T03:36:19.759Z,11.32
2023-01-08T03:37:19.783Z,11.32
2023-01-08T03:38:19.966Z,11.29
2023-01-08T03:39:19.557Z,11.36
2023-01-08T03:40:19.826Z,11.36
2023-01-08T03:41:19.609Z,11.26
2023-01-08T03:42:19.606Z,11.33
2023-01-08T03:43:19.913Z,11.27
2023-01-08T03:44:19.910Z,11.29
2023-01-08T03:45:19.899Z,11.23
2023-01-08T03:46:20.358Z,11.25
2023-01-08T03:47:19.937Z,11.33
2023-01-08T03:48:19.689Z,11.26
2023-01-08T03:49:19.700Z,11.33
2023-01-08T03:50:20.247Z,11.35
2023-01-08T03:51:19.522Z,11.29
2023-01-08T03:52:20.048Z,11.26
2023-01-08T03:53:20.036Z,11.25
2023-01-08T03:54:20.188Z,11.26
2023-01-08T03:55:19.803Z,11.22
2023-01-08T03:56:19.841Z,11.25
2023-01-08T03:57:20.121Z,11.26
2023-01-08T03:58:19.848Z,11.25
2023-01-08T03:59:20.157Z,11.29
2023-01-08T04:00:20.135Z,11.22
2023-01-08T04:01:20.339Z,11.19
2023-01-08T04:02:20.812Z,11.27
2023-01-08T04:03:20.205Z,11.23
2023-01-08T04:04:20.184Z,11.27
2023-01-08T04:05:19.960Z,11.23
2023-01-08T04:06:20.494Z,11.23
2023-01-08T04:07:20.261Z,11.25
2023-01-08T04:08:20.023Z,11.27
2023-01-08T04:09:20.050Z,11.23
2023-01-08T04:10:20.337Z,11.29
2023-01-08T04:11:20.383Z,11.23
2023-01-08T04:12:20.355Z,11.33
2023-01-08T04:13:20.407Z,11.23
2023-01-08T04:14:20.114Z,11.26
2023-01-08T04:15:20.393Z,11.19
2023-01-08T04:16:20.640Z,11.23
2023-01-08T04:17:20.427Z,11.26
2023-01-08T04:18:20.429Z,11.23
2023-01-08T04:19:20.199Z,11.3
2023-01-08T04:20:20.491Z,11.25
2023-01-08T04:21:20.478Z,11.26
2023-01-08T04:22:20.880Z,11.25
2023-01-08T04:23:20.293Z,11.19
2023-01-08T04:24:20.931Z,11.17
2023-01-08T04:25:20.554Z,11.25
2023-01-08T04:26:20.684Z,11.18
2023-01-08T04:27:20.613Z,11.22
2023-01-08T04:28:20.350Z,11.19
2023-01-08T04:29:20.624Z,11.26
2023-01-08T04:30:20.627Z,11.22
2023-01-08T04:31:20.914Z,11.19
2023-01-08T04:32:20.680Z,11.26
2023-01-08T04:33:20.687Z,11.22
2023-01-08T04:34:20.716Z,11.18
2023-01-08T04:35:20.716Z,11.19
2023-01-08T04:36:20.462Z,11.25
2023-01-08T04:37:20.514Z,11.25
2023-01-08T04:38:21.022Z,11.17
2023-01-08T04:39:20.783Z,11.22
2023-01-08T04:40:20.795Z,11.25
2023-01-08T04:41:20.580Z,11.15
2023-01-08T04:42:20.969Z,11.19
2023-01-08T04:43:20.841Z,11.22
2023-01-08T04:44:20.620Z,11.25
2023-01-08T04:45:20.614Z,11.18
2023-01-08T04:46:20.818Z,11.25
2023-01-08T04:47:20.904Z,11.18
2023-01-08T04:48:20.669Z,11.17
2023-01-08T04:49:20.693Z,11.22
2023-01-08T04:50:20.959Z,11.18
2023-01-08T04:51:20.737Z,11.25
2023-01-08T04:52:20.987Z,11.15
2023-01-08T04:53:20.990Z,11.12
2023-01-08T04:54:21.271Z,11.25
2023-01-08T04:55:21.042Z,11.22
2023-01-08T04:56:21.054Z,11.17
2023-01-08T04:57:21.080Z,11.25
2023-01-08T04:58:20.978Z,11.14
2023-01-08T04:59:20.836Z,11.17
2023-01-08T05:00:21.115Z,11.17
2023-01-08T05:01:21.576Z,11.19
2023-01-08T05:02:21.969Z,11.22
2023-01-08T05:03:20.886Z,11.17
2023-01-08T05:04:21.197Z,11.22
2023-01-08T05:05:21.204Z,11.14
2023-01-08T05:06:21.212Z,11.12
2023-01-08T05:07:21.253Z,11.25
2023-01-08T05:08:21.245Z,11.22
2023-01-08T05:09:21.013Z,11.14
2023-01-08T05:10:21.532Z,11.15
2023-01-08T05:11:21.290Z,11.17
2023-01-08T05:12:21.055Z,11.17
2023-01-08T05:13:21.059Z,11.15
2023-01-08T05:14:21.215Z,11.19
2023-01-08T05:15:21.364Z,11.15
2023-01-08T05:16:21.717Z,11.19
2023-01-08T05:17:21.404Z,11.18
2023-01-08T05:18:21.416Z,11.18
2023-01-08T05:19:21.424Z,11.15
2023-01-08T05:20:23.857Z,11.15
2023-01-08T05:21:21.491Z,11.12
2023-01-08T05:22:21.471Z,11.15
2023-01-08T05:23:21.230Z,11.17
2023-01-08T05:24:21.715Z,11.22
2023-01-08T05:25:21.530Z,11.18
2023-01-08T05:26:22.018Z,11.15
2023-01-08T05:27:21.565Z,11.18
2023-01-08T05:28:21.620Z,11.17
2023-01-08T05:29:21.323Z,11.17
2023-01-08T05:30:21.747Z,11.18
2023-01-08T05:31:21.744Z,11.15
2023-01-08T05:32:21.630Z,11.1
2023-01-08T05:33:21.659Z,11.18
2023-01-08T05:34:21.677Z,11.11
2023-01-08T05:35:21.432Z,11.18
2023-01-08T05:36:21.691Z,11.12
2023-01-08T05:37:21.729Z,11.18
2023-01-08T05:38:21.763Z,11.22
2023-01-08T05:39:21.743Z,11.15
2023-01-08T05:40:21.765Z,11.22
2023-01-08T05:41:21.778Z,11.18
2023-01-08T05:42:22.084Z,11.12
2023-01-08T05:43:21.812Z,11.07
2023-01-08T05:44:21.839Z,11.11
2023-01-08T05:45:21.856Z,11.15
2023-01-08T05:46:22.041Z,11.17
2023-01-08T05:47:21.626Z,11.12
2023-01-08T05:48:21.888Z,11.11
2023-01-08T05:49:22.031Z,11.18
2023-01-08T05:50:21.659Z,11.1
2023-01-08T05:51:21.689Z,11.18
2023-01-08T05:52:21.973Z,11.15
2023-01-08T05:53:21.982Z,11.14
2023-01-08T05:54:21.994Z,11.1
2023-01-08T05:55:22.018Z,11.18
2023-01-08T05:56:22.022Z,11.1
2023-01-08T05:57:22.037Z,11.12
2023-01-08T05:58:22.309Z,11.14
2023-01-08T05:59:22.082Z,11.12
2023-01-08T06:00:22.088Z,11.1
2023-01-08T06:01:22.299Z,11.12
2023-01-08T06:02:22.271Z,11.15
2023-01-08T06:03:22.128Z,11.14
2023-01-08T06:04:22.353Z,11.17
2023-01-08T06:05:22.179Z,11.11
2023-01-08T06:06:22.177Z,11.07
2023-01-08T06:07:22.234Z,11.11
2023-01-08T06:08:21.955Z,11.17
2023-01-08T06:09:22.248Z,11.17
2023-01-08T06:10:22.259Z,11.12
2023-01-08T06:11:22.263Z,11.12
2023-01-08T06:12:22.278Z,11.17
2023-01-08T06:13:22.316Z,11.11
2023-01-08T06:14:22.298Z,11.12
2023-01-08T06:15:22.328Z,11.12
2023-01-08T06:16:22.452Z,11.11
2023-01-08T06:17:22.363Z,11.07
2023-01-08T06:18:22.263Z,11.11
2023-01-08T06:19:22.139Z,11.08
2023-01-08T06:20:22.449Z,11.12
2023-01-08T06:21:22.167Z,11.17
2023-01-08T06:22:22.182Z,11.12
2023-01-08T06:23:22.188Z,11.08
2023-01-08T06:24:22.689Z,11.14
2023-01-08T06:25:22.492Z,11.1
2023-01-08T06:26:22.243Z,11.11
2023-01-08T06:27:22.516Z,11.14
2023-01-08T06:28:22.536Z,11.15
2023-01-08T06:29:22.296Z,11.07
2023-01-08T06:30:22.814Z,11.14
2023-01-08T06:31:22.518Z,11.11
2023-01-08T06:32:22.611Z,11.04
2023-01-08T06:33:25.735Z,11.11
2023-01-08T06:34:22.748Z,11.12
2023-01-08T06:35:22.652Z,11.15
2023-01-08T06:36:22.409Z,11.15
2023-01-08T06:37:22.691Z,11.1
2023-01-08T06:38:22.727Z,11.14
2023-01-08T06:39:22.711Z,11.1
2023-01-08T06:40:22.481Z,11.12
2023-01-08T06:41:22.502Z,11.11
2023-01-08T06:42:22.814Z,11.14
2023-01-08T06:43:24.107Z,11.11
2023-01-08T06:44:22.797Z,11.04
2023-01-08T06:45:22.810Z,11.12
2023-01-08T06:46:22.846Z,11.11
2023-01-08T06:47:22.837Z,11.11
2023-01-08T06:48:22.856Z,11.05
2023-01-08T06:49:22.879Z,11.08
2023-01-08T06:50:22.995Z,11.17
2023-01-08T06:51:22.647Z,11.1
2023-01-08T06:52:22.674Z,11.05
2023-01-08T06:53:22.946Z,11.1
2023-01-08T06:54:22.956Z,11.11
2023-01-08T06:55:22.457Z,11.08
2023-01-08T06:56:22.976Z,11.14
2023-01-08T06:57:22.999Z,11.02
2023-01-08T06:58:23.012Z,11.07
2023-01-08T06:59:23.035Z,11.11
2023-01-08T07:00:23.056Z,11.11
2023-01-08T07:01:23.308Z,11.07
2023-01-08T07:02:27.326Z,11.07
2023-01-08T07:03:23.367Z,11.1
2023-01-08T07:04:22.876Z,11.07
2023-01-08T07:05:22.863Z,11.05
2023-01-08T07:06:23.073Z,11.05
2023-01-08T07:07:23.163Z,11.11
2023-01-08T07:08:23.196Z,11.08
2023-01-08T07:09:22.983Z,11.04
2023-01-08T07:10:25.052Z,11.07
2023-01-08T07:11:22.960Z,11.02
2023-01-08T07:12:23.256Z,11.02
2023-01-08T07:13:23.255Z,11.05
2023-01-08T07:14:22.748Z,11.04
2023-01-08T07:15:23.299Z,11.05
2023-01-08T07:16:23.472Z,11.05
2023-01-08T07:17:23.323Z,11.07
2023-01-08T07:18:23.623Z,11.07
2023-01-08T07:19:23.354Z,11
2023-01-08T07:20:23.361Z,11.07
2023-01-08T07:21:23.417Z,11.04
2023-01-08T07:22:23.267Z,11.08
2023-01-08T07:23:23.435Z,11.04
2023-01-08T07:24:23.843Z,11
2023-01-08T07:25:25.274Z,10.99
2023-01-08T07:26:23.463Z,10.99
2023-01-08T07:27:23.484Z,11.04
2023-01-08T07:28:23.506Z,11.07
2023-01-08T07:29:23.261Z,11.05
2023-01-08T07:30:34.341Z,11.07
2023-01-08T07:31:23.901Z,11.05
2023-01-08T07:32:23.565Z,11.05
2023-01-08T07:33:23.578Z,11.08
2023-01-08T07:34:23.875Z,11.05
2023-01-08T07:35:23.605Z,11.07
2023-01-08T07:36:23.638Z,11.07
2023-01-08T07:37:23.379Z,11.07
2023-01-08T07:38:23.767Z,11.04
2023-01-08T07:39:23.673Z,11
2023-01-08T07:40:23.725Z,11
2023-01-08T07:41:23.474Z,10.97
2023-01-08T07:42:23.719Z,11.02
2023-01-08T07:43:23.760Z,11.04
2023-01-08T07:44:23.759Z,11.07
2023-01-08T07:45:23.791Z,11
2023-01-08T07:46:23.762Z,11.05
2023-01-08T07:47:23.811Z,10.96
2023-01-08T07:48:23.864Z,10.94
2023-01-08T07:49:23.833Z,11.08
2023-01-08T07:50:24.141Z,11.02
2023-01-08T07:51:23.875Z,11.08
2023-01-08T07:52:23.878Z,11.04
2023-01-08T07:53:23.911Z,11.05
2023-01-08T07:54:23.785Z,10.99
2023-01-08T07:55:23.944Z,11.02
2023-01-08T07:56:23.947Z,10.99
2023-01-08T07:57:23.706Z,10.97
2023-01-08T07:58:23.989Z,11.02
2023-01-08T07:59:23.989Z,11.04
2023-01-08T08:00:24.004Z,11
2023-01-08T08:01:24.704Z,11
2023-01-08T08:02:24.564Z,11.08
2023-01-08T08:03:23.971Z,11.04
2023-01-08T08:04:24.096Z,10.97
2023-01-08T08:05:24.133Z,11.04
2023-01-08T08:06:24.349Z,11.02
2023-01-08T08:07:23.866Z,10.99
2023-01-08T08:08:23.891Z,11.02
2023-01-08T08:09:24.144Z,11.02
2023-01-08T08:10:24.061Z,11
2023-01-08T08:11:23.938Z,10.97
2023-01-08T08:12:24.211Z,10.94
2023-01-08T08:13:24.222Z,11.05
2023-01-08T08:14:24.235Z,11.02
2023-01-08T08:15:24.006Z,10.99
2023-01-08T08:16:24.609Z,11.07
2023-01-08T08:17:24.308Z,11
2023-01-08T08:18:24.076Z,10.99
2023-01-08T08:19:24.328Z,10.96
2023-01-08T08:20:24.343Z,11.02
2023-01-08T08:21:24.089Z,10.97
2023-01-08T08:22:24.361Z,11
2023-01-08T08:23:24.385Z,11.02
2023-01-08T08:24:24.692Z,11.02
2023-01-08T08:25:24.421Z,10.99
2023-01-08T08:26:24.309Z,11.05
2023-01-08T08:27:24.451Z,11
2023-01-08T08:28:24.209Z,11.04
2023-01-08T08:29:24.237Z,10.99
2023-01-08T08:30:24.505Z,11.04
2023-01-08T08:31:24.762Z,11.02
2023-01-08T08:32:24.538Z,10.99
2023-01-08T08:33:24.546Z,11.08
2023-01-08T08:34:24.569Z,10.97
2023-01-08T08:35:24.587Z,10.97
2023-01-08T08:36:24.587Z,11.02
2023-01-08T08:37:24.367Z,10.96
2023-01-08T08:38:26.872Z,10.99
2023-01-08T08:39:24.379Z,11.05
2023-01-08T08:40:24.644Z,11.02
2023-01-08T08:41:24.672Z,10.97
2023-01-08T08:42:24.805Z,11.02
2023-01-08T08:43:24.464Z,10.99
2023-01-08T08:44:24.456Z,11.02
2023-01-08T08:45:24.765Z,11.02
2023-01-08T08:46:24.932Z,10.99
2023-01-08T08:47:24.773Z,10.97
2023-01-08T08:48:24.781Z,11.05
2023-01-08T08:49:24.538Z,11.02
2023-01-08T08:50:24.568Z,11.04
2023-01-08T08:51:24.843Z,10.99
2023-01-08T08:52:24.840Z,10.97
2023-01-08T08:53:26.400Z,11
2023-01-08T08:54:25.127Z,11
2023-01-08T08:55:24.888Z,10.99
2023-01-08T08:56:24.911Z,11.02
2023-01-08T08:57:24.660Z,11.04
2023-01-08T08:58:25.045Z,11
2023-01-08T08:59:24.955Z,11.07
2023-01-08T09:00:24.979Z,10.99
2023-01-08T09:01:25.119Z,11.04
2023-01-08T09:02:25.197Z,11
2023-01-08T09:03:24.901Z,10.97
2023-01-08T09:04:25.041Z,11.07
2023-01-08T09:05:25.045Z,11.05
2023-01-08T09:06:25.063Z,10.99
2023-01-08T09:07:24.818Z,11.02
2023-01-08T09:08:24.859Z,10.99
2023-01-08T09:09:25.137Z,11.04
2023-01-08T09:10:25.423Z,11.08
2023-01-08T09:11:25.150Z,10.94
2023-01-08T09:12:25.193Z,11.1
2023-01-08T09:13:25.191Z,11.02
2023-01-08T09:14:25.064Z,11.02
2023-01-08T09:15:25.213Z,11
2023-01-08T09:16:25.467Z,11.07
2023-01-08T09:17:25.229Z,11
2023-01-08T09:18:25.249Z,11.02
2023-01-08T09:19:25.021Z,10.99
2023-01-08T09:20:25.308Z,11.04
2023-01-08T09:21:25.321Z,11.05
2023-01-08T09:22:25.330Z,10.97
2023-01-08T09:23:25.335Z,11
2023-01-08T09:24:25.729Z,11
2023-01-08T09:25:25.114Z,11.07
2023-01-08T09:26:25.655Z,10.94
2023-01-08T09:27:25.397Z,11.02
2023-01-08T09:28:25.410Z,11.05
2023-01-08T09:29:25.445Z,10.99
2023-01-08T09:30:25.603Z,10.99
2023-01-08T09:31:25.618Z,10.99
2023-01-08T09:32:25.494Z,11.04
2023-01-08T09:33:25.245Z,11.05
2023-01-08T09:34:24.989Z,11.07
2023-01-08T09:35:25.519Z,10.94
2023-01-08T09:36:25.556Z,11.02
2023-01-08T09:37:25.561Z,10.96
2023-01-08T09:38:25.349Z,10.96
2023-01-08T09:39:25.588Z,11.02
2023-01-08T09:40:25.699Z,11.04
2023-01-08T09:41:25.638Z,11
2023-01-08T09:42:25.888Z,11
2023-01-08T09:43:25.649Z,10.99
2023-01-08T09:44:25.406Z,11.04
2023-01-08T09:45:27.044Z,10.99
2023-01-08T09:46:25.984Z,11.08
2023-01-08T09:47:25.717Z,11.02
2023-01-08T09:48:25.745Z,11
2023-01-08T09:49:25.751Z,10.96
2023-01-08T09:50:25.869Z,10.99
2023-01-08T09:51:25.789Z,11.02
2023-01-08T09:52:25.800Z,11.05
2023-01-08T09:53:25.821Z,11.05
2023-01-08T09:54:25.842Z,10.97
2023-01-08T09:55:25.835Z,11.05
2023-01-08T09:56:25.604Z,10.97
2023-01-08T09:57:25.887Z,10.99
2023-01-08T09:58:26.132Z,11.02
2023-01-08T09:59:25.916Z,11.08
2023-01-08T10:00:25.703Z,11
2023-01-08T10:01:26.264Z,11.04
2023-01-08T10:02:26.655Z,11.1
2023-01-08T10:03:25.978Z,11.11
2023-01-08T10:04:25.794Z,11.11
2023-01-08T10:05:25.755Z,11
2023-01-08T10:06:25.780Z,11.11
2023-01-08T10:07:25.782Z,11.05
2023-01-08T10:08:26.056Z,11.12
2023-01-08T10:09:26.089Z,11.11
2023-01-08T10:10:25.942Z,11.08
2023-01-08T10:11:26.129Z,11.11
2023-01-08T10:12:25.613Z,11.11
2023-01-08T10:13:26.155Z,11.1
2023-01-08T10:14:26.391Z,11.07
2023-01-08T10:15:26.180Z,11.07
2023-01-08T10:16:26.138Z,11.1
2023-01-08T10:17:26.226Z,11
2023-01-08T10:18:26.333Z,11.12
2023-01-08T10:19:26.230Z,11.12
2023-01-08T10:20:26.544Z,11.05
2023-01-08T10:21:25.742Z,11.05
2023-01-08T10:22:26.289Z,11.04
2023-01-08T10:23:26.290Z,11.04
2023-01-08T10:24:26.606Z,11.11
2023-01-08T10:25:26.327Z,11.07
2023-01-08T10:26:26.396Z,11.11
2023-01-08T10:27:26.384Z,11.07
2023-01-08T10:28:26.375Z,11.12
2023-01-08T10:29:26.387Z,11.11
2023-01-08T10:30:26.690Z,11.04
2023-01-08T10:31:26.748Z,11.14
2023-01-08T10:32:25.913Z,11.1
2023-01-08T10:33:26.203Z,11
2023-01-08T10:34:26.505Z,11.05
2023-01-08T10:35:26.480Z,11.1
2023-01-08T10:36:26.496Z,11.04
2023-01-08T10:37:26.254Z,11.14
2023-01-08T10:38:26.553Z,11.04
2023-01-08T10:39:26.580Z,11.05
2023-01-08T10:40:26.699Z,11.1
2023-01-08T10:41:26.314Z,11.07
2023-01-08T10:42:26.606Z,11.12
2023-01-08T10:43:26.653Z,11.07
2023-01-08T10:44:26.622Z,11.11
2023-01-08T10:45:26.731Z,11.08
2023-01-08T10:46:26.645Z,11.08
2023-01-08T10:47:26.670Z,11.08
2023-01-08T10:48:26.445Z,11.11
2023-01-08T10:49:26.716Z,11.12
2023-01-08T10:50:26.785Z,11.12
2023-01-08T10:51:26.758Z,11.12
2023-01-08T10:52:26.784Z,11.11
2023-01-08T10:53:26.512Z,11.14
2023-01-08T10:54:26.822Z,11.08
2023-01-08T10:55:26.566Z,11.15
2023-01-08T10:56:26.827Z,11.14
2023-01-08T10:57:26.845Z,11.15
2023-01-08T10:58:26.843Z,11.12
2023-01-08T10:59:26.869Z,11.11
2023-01-08T11:00:26.901Z,11.11
2023-01-08T11:01:26.785Z,11.12
2023-01-08T11:02:27.282Z,11.11
2023-01-08T11:03:26.669Z,11.17
2023-01-08T11:04:26.949Z,11.12
2023-01-08T11:05:26.962Z,11.12
2023-01-08T11:06:27.361Z,11.18
2023-01-08T11:07:26.985Z,11.19
2023-01-08T11:08:27.948Z,11.12
2023-01-08T11:09:27.025Z,11.14
2023-01-08T11:10:27.128Z,11.15
2023-01-08T11:11:27.076Z,11.17
2023-01-08T11:12:27.075Z,11.14
2023-01-08T11:13:27.097Z,11.18
2023-01-08T11:14:27.096Z,11.12
2023-01-08T11:15:27.142Z,11.22
2023-01-08T11:16:27.289Z,11.12
2023-01-08T11:17:27.149Z,11.08
2023-01-08T11:18:27.284Z,11.17
2023-01-08T11:19:26.938Z,11.22
2023-01-08T11:20:27.079Z,11.15
2023-01-08T11:21:27.280Z,11.18
2023-01-08T11:22:27.276Z,11.15
2023-01-08T11:23:27.033Z,11.15
2023-01-08T11:24:27.348Z,11.18
2023-01-08T11:25:27.272Z,11.12
2023-01-08T11:26:27.067Z,11.22
2023-01-08T11:27:27.312Z,11.22
2023-01-08T11:28:27.355Z,11.15
2023-01-08T11:29:27.371Z,11.19
2023-01-08T11:30:27.424Z,11.22
2023-01-08T11:31:27.316Z,11.17
2023-01-08T11:32:27.378Z,11.23
2023-01-08T11:33:27.143Z,11.12
2023-01-08T11:34:27.469Z,11.29
2023-01-08T11:35:27.446Z,11.18
2023-01-08T11:36:26.933Z,11.15
2023-01-08T11:37:27.484Z,11.19
2023-01-08T11:38:27.524Z,11.22
2023-01-08T11:39:27.498Z,11.15
2023-01-08T11:40:27.347Z,11.25
2023-01-08T11:41:30.350Z,11.22
2023-01-08T11:42:27.336Z,11.18
2023-01-08T11:43:27.591Z,11.23
2023-01-08T11:44:27.587Z,11.18
2023-01-08T11:45:27.494Z,11.23
2023-01-08T11:46:27.664Z,11.18
2023-01-08T11:47:27.636Z,11.18
2023-01-08T11:48:27.650Z,11.18
2023-01-08T11:49:27.674Z,11.19
2023-01-08T11:50:28.081Z,11.18
2023-01-08T11:51:27.705Z,11.22
2023-01-08T11:52:27.456Z,11.35
2023-01-08T11:53:27.732Z,11.35
2023-01-08T11:54:27.771Z,11.3
2023-01-08T11:55:27.764Z,11.3
2023-01-08T11:56:27.783Z,11.32
2023-01-08T11:57:27.530Z,11.36
2023-01-08T11:58:27.939Z,11.36
2023-01-08T11:59:27.859Z,11.35
2023-01-08T12:00:27.873Z,11.33
2023-01-08T12:01:27.881Z,11.43
2023-01-08T12:02:28.038Z,11.4
2023-01-08T12:03:28.064Z,11.43
2023-01-08T12:04:27.930Z,11.51
2023-01-08T12:05:28.007Z,11.47
2023-01-08T12:06:28.002Z,11.5
2023-01-08T12:07:27.984Z,11.51
2023-01-08T12:08:27.700Z,11.48
2023-01-08T12:09:27.995Z,11.47
2023-01-08T12:10:28.055Z,11.5
2023-01-08T12:11:27.751Z,11.51
2023-01-08T12:12:28.033Z,11.51
2023-01-08T12:13:28.042Z,11.48
2023-01-08T12:14:28.056Z,11.55
2023-01-08T12:15:28.084Z,11.59
2023-01-08T12:16:27.985Z,11.62
2023-01-08T12:17:29.546Z,11.52
2023-01-08T12:18:28.130Z,11.57
2023-01-08T12:19:27.882Z,11.5
2023-01-08T12:20:28.149Z,11.57
2023-01-08T12:21:27.933Z,11.52
2023-01-08T12:22:28.259Z,11.54
2023-01-08T12:23:27.956Z,11.5
2023-01-08T12:24:28.442Z,11.6
2023-01-08T12:25:28.271Z,11.52
2023-01-08T12:26:28.303Z,11.6
2023-01-08T12:28:00.100Z,11.59
2023-01-08T12:28:28.302Z,11.52
2023-01-08T12:29:27.799Z,11.63
2023-01-08T12:30:28.327Z,11.62
2023-01-08T12:31:28.208Z,11.68
2023-01-08T12:32:28.497Z,11.68
2023-01-08T12:33:28.387Z,11.62
2023-01-08T12:34:28.448Z,11.57
2023-01-08T12:35:28.412Z,11.6
2023-01-08T12:36:28.429Z,11.65
2023-01-08T12:37:28.448Z,11.63
2023-01-08T12:38:28.236Z,11.54
2023-01-08T12:39:28.208Z,11.57
2023-01-08T12:40:28.500Z,11.57
2023-01-08T12:41:28.277Z,11.57
2023-01-08T12:42:28.546Z,11.55
2023-01-08T12:43:28.304Z,11.55
2023-01-08T12:44:28.580Z,11.54
2023-01-08T12:45:28.787Z,11.59
2023-01-08T12:46:28.586Z,11.59
2023-01-08T12:47:28.605Z,11.55
2023-01-08T12:48:28.601Z,11.51
2023-01-08T12:49:28.647Z,11.47
2023-01-08T12:50:28.655Z,11.52
2023-01-08T12:51:28.663Z,11.55
2023-01-08T12:52:28.675Z,11.51
2023-01-08T12:53:28.708Z,11.51
2023-01-08T12:54:28.787Z,11.45
2023-01-08T12:55:28.474Z,11.45
2023-01-08T12:56:28.745Z,11.5
2023-01-08T12:57:30.481Z,11.45